Time;durP1;ratioP1;P1;durP2;ratioP2;P2;SDS_P1;SDS_P2;PMS_P1;PMS_P2;Temp;Humidity;BMP_temperature;BMP_pressure;BME280_temperature;BME280_humidity;BME280_pressure;Samples;Min_cycle;Max_cycle;Signal;HPM_P1;HPM_P2
2022/09/11 00:01:59;;;;;;;44.67;30.25;;;;;;;;;;5100008;27;89004;-72
2022/09/11 00:04:26;;;;;;;38.97;28.60;;;;;;;;;;5099589;27;90024;-72
2022/09/11 00:06:52;;;;;;;42.58;30.27;;;;;;;;;;5095123;27;89189;-72
2022/09/11 00:09:19;;;;;;;40.65;28.70;;;;;;;;;;5078880;27;89493;-72
2022/09/11 00:11:45;;;;;;;42.22;27.70;;;;;;;;;;5077208;27;88975;-72
2022/09/11 00:14:12;;;;;;;46.97;30.88;;;;;;;;;;5078553;27;89418;-72
2022/09/11 00:16:40;;;;;;;44.67;28.20;;;;;;;;;;5078977;27;88900;-72
2022/09/11 00:19:09;;;;;;;42.42;28.88;;;;;;;;;;5080595;27;90413;-72
2022/09/11 00:21:35;;;;;;;34.63;27.33;;;;;;;;;;5078500;27;89047;-72
2022/09/11 00:24:01;;;;;;;39.45;28.90;;;;;;;;;;5078074;27;90069;-72
2022/09/11 00:26:28;;;;;;;40.78;29.00;;;;;;;;;;5078327;27;89297;-72
2022/09/11 00:28:54;;;;;;;40.47;29.33;;;;;;;;;;5078736;27;89008;-72
2022/09/11 00:31:23;;;;;;;49.60;30.17;;;;;;;;;;5078806;27;89913;-72
2022/09/11 00:33:50;;;;;;;54.85;30.52;;;;;;;;;;5058948;27;92176;-72
2022/09/11 00:36:17;;;;;;;44.15;30.33;;;;;;;;;;5079111;27;88799;-72
2022/09/11 00:38:45;;;;;;;39.40;28.42;;;;;;;;;;5078462;27;89830;-72
2022/09/11 00:41:13;;;;;;;49.50;31.45;;;;;;;;;;5080521;27;89354;-72
2022/09/11 00:43:56;;;;;;;39.63;29.50;;;;;;;;;;5081668;27;89920;-72
2022/09/11 00:46:25;;;;;;;41.28;29.35;;;;;;;;;;5081717;27;89431;-72
2022/09/11 00:48:51;;;;;;;40.58;30.38;;;;;;;;;;5077069;27;89016;-72
2022/09/11 00:51:20;;;;;;;39.15;27.83;;;;;;;;;;5078703;27;90892;-72
2022/09/11 00:53:48;;;;;;;50.28;30.02;;;;;;;;;;5081497;27;89451;-72
2022/09/11 00:56:14;;;;;;;54.60;30.70;;;;;;;;;;5099297;27;88869;-72
2022/09/11 00:58:42;;;;;;;42.15;29.67;;;;;;;;;;5077765;27;90933;-72
2022/09/11 01:01:09;;;;;;;48.20;32.00;;;;;;;;;;5090245;27;89680;-72
2022/09/11 01:03:36;;;;;;;44.83;30.75;;;;;;;;;;5062488;27;90513;-72
2022/09/11 01:06:03;;;;;;;48.08;31.70;;;;;;;;;;5078414;27;89370;-72
2022/09/11 01:08:29;;;;;;;44.15;29.42;;;;;;;;;;5058993;27;91644;-72
2022/09/11 01:10:56;;;;;;;45.15;31.67;;;;;;;;;;5078141;27;89596;-72
2022/09/11 01:13:22;;;;;;;47.42;30.88;;;;;;;;;;5082304;27;89341;-72
2022/09/11 01:16:03;;;;;;;52.03;32.53;;;;;;;;;;5098232;27;89348;-72
2022/09/11 01:18:40;;;;;;;48.33;31.02;;;;;;;;;;5097155;27;89996;-72
2022/09/11 01:21:17;;;;;;;66.78;36.75;;;;;;;;;;5099068;27;89183;-72
2022/09/11 01:24:02;;;;;;;54.78;34.65;;;;;;;;;;5078604;27;90350;-72
2022/09/11 01:26:31;;;;;;;53.45;34.33;;;;;;;;;;5101833;27;89626;-72
2022/09/11 01:29:01;;;;;;;51.17;31.92;;;;;;;;;;5094887;27;88982;-72
2022/09/11 01:31:29;;;;;;;43.60;30.55;;;;;;;;;;5077160;27;90881;-72
2022/09/11 01:33:58;;;;;;;49.13;31.75;;;;;;;;;;5059101;27;91305;-72
2022/09/11 01:36:30;;;;;;;48.72;31.75;;;;;;;;;;5077603;27;89417;-72
2022/09/11 01:38:58;;;;;;;47.97;33.92;;;;;;;;;;5076672;27;90084;-72
2022/09/11 01:41:36;;;;;;;49.25;33.15;;;;;;;;;;5077992;27;89218;-72
2022/09/11 01:44:06;;;;;;;47.00;33.22;;;;;;;;;;5059069;27;89731;-72
2022/09/11 01:46:37;;;;;;;46.75;31.45;;;;;;;;;;5061422;27;91605;-72
2022/09/11 01:49:07;;;;;;;48.38;32.00;;;;;;;;;;5061501;27;90721;-72
2022/09/11 01:51:35;;;;;;;46.55;31.25;;;;;;;;;;5077380;27;89805;-72
2022/09/11 01:54:02;;;;;;;56.58;33.20;;;;;;;;;;5065271;27;90287;-72
2022/09/11 01:56:32;;;;;;;57.63;34.80;;;;;;;;;;5077987;27;91350;-72
2022/09/11 01:59:00;;;;;;;47.92;32.10;;;;;;;;;;5077960;27;90171;-72
2022/09/11 02:01:31;;;;;;;40.63;29.70;;;;;;;;;;5079202;27;89337;-72
2022/09/11 02:04:03;;;;;;;44.67;32.40;;;;;;;;;;5058271;27;90989;-72
2022/09/11 02:06:35;;;;;;;42.83;31.05;;;;;;;;;;5077843;27;89845;-72
2022/09/11 02:09:05;;;;;;;53.25;32.53;;;;;;;;;;5058589;27;89787;-72
2022/09/11 02:11:33;;;;;;;43.35;30.00;;;;;;;;;;5062027;27;90631;-72
2022/09/11 02:14:02;;;;;;;43.75;29.95;;;;;;;;;;5062482;27;91640;-72
2022/09/11 02:16:38;;;;;;;47.13;31.08;;;;;;;;;;5081299;27;88902;-72
2022/09/11 02:19:06;;;;;;;43.10;30.73;;;;;;;;;;5061241;27;90852;-72
2022/09/11 02:21:33;;;;;;;42.97;30.38;;;;;;;;;;5081008;27;89391;-72
2022/09/11 02:23:59;;;;;;;47.80;32.28;;;;;;;;;;5061763;27;90963;-72
2022/09/11 02:26:28;;;;;;;56.22;35.00;;;;;;;;;;5061366;27;90921;-72
2022/09/11 02:28:54;;;;;;;53.60;33.22;;;;;;;;;;5062002;27;91651;-72
2022/09/11 02:31:21;;;;;;;52.20;33.53;;;;;;;;;;5065630;27;90233;-72
2022/09/11 02:33:48;;;;;;;50.97;33.65;;;;;;;;;;5078966;27;89183;-72
2022/09/11 02:36:34;;;;;;;45.80;31.98;;;;;;;;;;5080349;27;88898;-72
2022/09/11 02:39:19;;;;;;;57.50;34.85;;;;;;;;;;5079920;27;89933;-72
2022/09/11 02:41:50;;;;;;;62.67;34.20;;;;;;;;;;5061310;27;91506;-72
2022/09/11 02:44:35;;;;;;;53.60;34.90;;;;;;;;;;5062787;27;91589;-72
2022/09/11 02:47:20;;;;;;;52.38;34.03;;;;;;;;;;5078604;27;88978;-72
2022/09/11 02:49:52;;;;;;;49.45;32.63;;;;;;;;;;5066930;27;91853;-72
2022/09/11 02:52:19;;;;;;;52.15;32.15;;;;;;;;;;5080667;27;89572;-72
2022/09/11 02:54:49;;;;;;;50.40;31.48;;;;;;;;;;5063801;27;92500;-73
2022/09/11 02:57:19;;;;;;;44.25;30.45;;;;;;;;;;5062102;27;90164;-72
2022/09/11 02:59:50;;;;;;;50.70;31.40;;;;;;;;;;5062099;27;92442;-72
2022/09/11 03:02:17;;;;;;;47.95;31.33;;;;;;;;;;5061242;27;92167;-72
2022/09/11 03:04:45;;;;;;;44.53;29.55;;;;;;;;;;5061171;27;91655;-72
2022/09/11 03:07:11;;;;;;;52.78;33.65;;;;;;;;;;5080550;27;90097;-72
2022/09/11 03:09:38;;;;;;;45.42;31.48;;;;;;;;;;5079329;27;89151;-72
2022/09/11 03:12:11;;;;;;;50.78;32.67;;;;;;;;;;5061704;27;89568;-72
2022/09/11 03:14:37;;;;;;;43.28;30.92;;;;;;;;;;5079091;27;90761;-72
2022/09/11 03:17:04;;;;;;;50.63;32.40;;;;;;;;;;5064626;27;90317;-72
2022/09/11 03:19:32;;;;;;;47.08;30.10;;;;;;;;;;5061728;27;90210;-72
2022/09/11 03:21:59;;;;;;;47.97;29.90;;;;;;;;;;5059828;27;91218;-72
2022/09/11 03:24:25;;;;;;;37.88;28.42;;;;;;;;;;5060927;27;91413;-72
2022/09/11 03:26:51;;;;;;;46.80;29.20;;;;;;;;;;5079649;27;89811;-72
2022/09/11 03:29:18;;;;;;;42.97;29.20;;;;;;;;;;5079046;27;89234;-72
2022/09/11 03:31:45;;;;;;;51.92;30.80;;;;;;;;;;5078800;27;88951;-72
2022/09/11 03:34:12;;;;;;;44.20;29.83;;;;;;;;;;5068974;27;91969;-72
2022/09/11 03:36:39;;;;;;;36.30;28.58;;;;;;;;;;5080858;27;89332;-72
2022/09/11 03:39:05;;;;;;;47.08;28.95;;;;;;;;;;5098615;27;89519;-72
2022/09/11 03:41:32;;;;;;;38.20;28.52;;;;;;;;;;5060900;27;91445;-72
2022/09/11 03:43:58;;;;;;;39.35;28.70;;;;;;;;;;5078497;27;89724;-72
2022/09/11 03:46:24;;;;;;;40.33;29.17;;;;;;;;;;5060024;27;92146;-72
2022/09/11 03:48:52;;;;;;;44.10;29.63;;;;;;;;;;5079180;27;89139;-72
2022/09/11 03:51:19;;;;;;;49.25;28.60;;;;;;;;;;5061062;27;89310;-72
2022/09/11 03:53:47;;;;;;;49.35;30.17;;;;;;;;;;5082872;27;89765;-72
2022/09/11 03:56:13;;;;;;;37.97;27.67;;;;;;;;;;5067442;27;91594;-72
2022/09/11 03:58:44;;;;;;;48.90;29.05;;;;;;;;;;5059815;27;89630;-72
2022/09/11 04:01:12;;;;;;;53.22;32.72;;;;;;;;;;5081794;27;89990;-72
2022/09/11 04:03:40;;;;;;;38.28;27.13;;;;;;;;;;5059959;27;89096;-72
2022/09/11 04:06:13;;;;;;;43.70;29.52;;;;;;;;;;5060554;27;89871;-72
2022/09/11 04:08:40;;;;;;;43.42;29.83;;;;;;;;;;5079768;27;89218;-72
2022/09/11 04:11:10;;;;;;;43.88;30.23;;;;;;;;;;5065150;27;89046;-72
2022/09/11 04:13:38;;;;;;;41.53;26.20;;;;;;;;;;5081049;27;93145;-72
2022/09/11 04:16:09;;;;;;;45.45;29.10;;;;;;;;;;5081076;27;89278;-72
2022/09/11 04:18:39;;;;;;;42.28;27.45;;;;;;;;;;5079968;27;89807;-72
2022/09/11 04:21:07;;;;;;;38.42;27.65;;;;;;;;;;5080571;27;92016;-72
2022/09/11 04:23:33;;;;;;;40.08;26.42;;;;;;;;;;5083833;27;91588;-72
2022/09/11 04:26:00;;;;;;;49.60;30.73;;;;;;;;;;5079004;27;92627;-72
2022/09/11 04:28:28;;;;;;;36.40;27.38;;;;;;;;;;5067874;27;91075;-72
2022/09/11 04:30:56;;;;;;;43.28;30.17;;;;;;;;;;5060241;27;91285;-72
2022/09/11 04:33:23;;;;;;;41.85;29.45;;;;;;;;;;5058751;27;92393;-72
2022/09/11 04:35:50;;;;;;;35.25;27.30;;;;;;;;;;5078833;27;89229;-72
2022/09/11 04:38:17;;;;;;;47.20;27.75;;;;;;;;;;5060248;27;88843;-72
2022/09/11 04:40:44;;;;;;;39.85;27.55;;;;;;;;;;5059231;27;92387;-72
2022/09/11 04:43:11;;;;;;;40.15;28.17;;;;;;;;;;5081219;27;89690;-72
2022/09/11 04:45:38;;;;;;;45.78;29.80;;;;;;;;;;5058766;27;92141;-72
2022/09/11 04:48:06;;;;;;;42.88;28.90;;;;;;;;;;5077642;27;90468;-72
2022/09/11 04:50:32;;;;;;;41.75;28.00;;;;;;;;;;5059248;27;89831;-72
2022/09/11 04:53:27;;;;;;;42.17;29.48;;;;;;;;;;5065900;27;90047;-72
2022/09/11 04:56:02;;;;;;;46.30;28.38;;;;;;;;;;5080053;27;89519;-72
2022/09/11 04:58:35;;;;;;;42.67;28.83;;;;;;;;;;5077250;27;89179;-72
2022/09/11 05:01:09;;;;;;;43.63;28.80;;;;;;;;;;5077552;27;89711;-72
2022/09/11 05:03:37;;;;;;;45.38;29.73;;;;;;;;;;5059651;27;91769;-72
2022/09/11 05:06:04;;;;;;;43.78;27.65;;;;;;;;;;5073060;27;89741;-72
2022/09/11 05:08:32;;;;;;;36.45;26.88;;;;;;;;;;5079252;27;91375;-72
2022/09/11 05:11:01;;;;;;;38.17;27.40;;;;;;;;;;5078373;27;90727;-72
2022/09/11 05:13:30;;;;;;;36.28;25.70;;;;;;;;;;5098930;27;89972;-72
2022/09/11 05:16:05;;;;;;;35.15;25.55;;;;;;;;;;5072399;27;92078;-72
2022/09/11 05:18:32;;;;;;;34.65;25.80;;;;;;;;;;5078226;27;89024;-72
2022/09/11 05:21:02;;;;;;;36.05;26.67;;;;;;;;;;5058678;27;92725;-72
2022/09/11 05:23:30;;;;;;;37.10;26.42;;;;;;;;;;5077957;27;89518;-72
2022/09/11 05:25:58;;;;;;;47.20;28.27;;;;;;;;;;5059549;27;88986;-72
2022/09/11 05:28:25;;;;;;;50.08;30.35;;;;;;;;;;5077644;27;89849;-72
2022/09/11 05:30:55;;;;;;;41.88;26.42;;;;;;;;;;5077517;27;90594;-72
2022/09/11 05:33:23;;;;;;;48.13;29.38;;;;;;;;;;5069224;27;91397;-72
2022/09/11 05:35:54;;;;;;;57.40;31.70;;;;;;;;;;5057905;27;91072;-72
2022/09/11 05:38:25;;;;;;;51.78;31.60;;;;;;;;;;5059467;27;89691;-72
2022/09/11 05:40:52;;;;;;;66.20;34.33;;;;;;;;;;5059129;27;90849;-72
2022/09/11 05:43:20;;;;;;;222.52;43.70;;;;;;;;;;5076951;27;90606;-72
2022/09/11 05:45:55;;;;;;;458.08;56.85;;;;;;;;;;5057336;27;90818;-72
2022/09/11 05:48:23;;;;;;;656.35;59.35;;;;;;;;;;5059321;27;92165;-72
2022/09/11 05:50:53;;;;;;;582.20;56.58;;;;;;;;;;5074373;27;91995;-72
2022/09/11 05:53:21;;;;;;;425.33;52.17;;;;;;;;;;5079081;27;92258;-73
2022/09/11 05:55:48;;;;;;;582.60;58.13;;;;;;;;;;5058747;27;91652;-72
2022/09/11 05:58:17;;;;;;;588.30;60.17;;;;;;;;;;5067589;27;91839;-72
2022/09/11 06:00:46;;;;;;;681.25;64.05;;;;;;;;;;5097877;27;89904;-72
2022/09/11 06:03:16;;;;;;;503.67;55.92;;;;;;;;;;5079006;27;90249;-72
2022/09/11 06:05:43;;;;;;;581.67;56.83;;;;;;;;;;5079345;27;90473;-72
2022/09/11 06:08:10;;;;;;;569.97;52.78;;;;;;;;;;5077992;27;91931;-72
2022/09/11 06:10:45;;;;;;;769.58;68.55;;;;;;;;;;5078516;27;89332;-72
2022/09/11 06:13:16;;;;;;;612.20;57.38;;;;;;;;;;5082286;27;88990;-72
2022/09/11 06:15:45;;;;;;;;;;;;;;;;;;5067571;27;89328;-72
2022/09/11 06:18:13;;;;;;;534.38;46.88;;;;;;;;;;5076063;27;90713;-72
2022/09/11 06:20:40;;;;;;;685.40;55.50;;;;;;;;;;5064914;27;89175;-72
2022/09/11 06:23:14;;;;;;;653.17;51.70;;;;;;;;;;5057956;27;91406;-72
2022/09/11 06:25:40;;;;;;;623.00;52.22;;;;;;;;;;5073315;27;89125;-72
2022/09/11 06:28:07;;;;;;;428.02;43.72;;;;;;;;;;5064154;27;92518;-72
2022/09/11 06:30:33;;;;;;;327.20;38.90;;;;;;;;;;5057886;27;91798;-72
2022/09/11 06:33:00;;;;;;;402.05;41.17;;;;;;;;;;5083645;27;89413;-72
2022/09/11 06:35:27;;;;;;;322.08;31.17;;;;;;;;;;5079095;27;89003;-72
2022/09/11 06:37:54;;;;;;;316.25;33.38;;;;;;;;;;5081353;27;89742;-72
2022/09/11 06:40:20;;;;;;;301.77;35.20;;;;;;;;;;5071526;27;89814;-70
2022/09/11 06:42:47;;;;;;;342.80;39.80;;;;;;;;;;5064864;27;90416;-71
2022/09/11 06:45:14;;;;;;;252.77;35.08;;;;;;;;;;5058022;27;90781;-71
2022/09/11 06:47:41;;;;;;;225.10;33.70;;;;;;;;;;5079123;27;90948;-71
2022/09/11 06:50:07;;;;;;;298.10;33.10;;;;;;;;;;5064553;27;92347;-71
2022/09/11 06:52:41;;;;;;;249.18;33.40;;;;;;;;;;5056907;27;90496;-71
2022/09/11 06:55:19;;;;;;;351.52;33.38;;;;;;;;;;5060610;27;92201;-70
2022/09/11 06:57:52;;;;;;;307.13;32.83;;;;;;;;;;5069102;27;89594;-72
2022/09/11 07:00:24;;;;;;;219.07;26.08;;;;;;;;;;5062581;27;92340;-71
2022/09/11 07:02:51;;;;;;;325.88;30.02;;;;;;;;;;5062779;27;91378;-71
2022/09/11 07:05:18;;;;;;;278.25;32.83;;;;;;;;;;5076129;27;90568;-72
2022/09/11 07:07:49;;;;;;;284.50;32.03;;;;;;;;;;5081197;27;91130;-72
2022/09/11 07:10:16;;;;;;;254.60;26.10;;;;;;;;;;5082371;27;91102;-72
2022/09/11 07:12:47;;;;;;;273.13;24.05;;;;;;;;;;5075045;27;90964;-72
2022/09/11 07:15:14;;;;;;;349.15;32.60;;;;;;;;;;5069185;27;92336;-72
2022/09/11 07:17:40;;;;;;;143.57;21.42;;;;;;;;;;5064316;27;89551;-72
2022/09/11 07:20:09;;;;;;;116.95;23.55;;;;;;;;;;5061450;27;91109;-72
2022/09/11 07:22:36;;;;;;;146.68;22.67;;;;;;;;;;5059466;27;91102;-72
2022/09/11 07:25:04;;;;;;;121.47;24.30;;;;;;;;;;5079776;27;88894;-73
2022/09/11 07:27:38;;;;;;;167.13;28.30;;;;;;;;;;5060633;27;91791;-72
2022/09/11 07:30:05;;;;;;;115.13;23.15;;;;;;;;;;5077705;27;89388;-71
2022/09/11 07:32:36;;;;;;;41.88;18.55;;;;;;;;;;5067069;27;91434;-71
2022/09/11 07:35:03;;;;;;;54.63;17.60;;;;;;;;;;5061075;27;90071;-71
2022/09/11 07:37:30;;;;;;;34.05;20.17;;;;;;;;;;5061087;27;91886;-71
2022/09/11 07:39:57;;;;;;;65.88;20.60;;;;;;;;;;5065534;27;90634;-72
2022/09/11 07:42:27;;;;;;;32.63;21.00;;;;;;;;;;5065399;27;91914;-72
2022/09/11 07:44:55;;;;;;;22.95;18.80;;;;;;;;;;5060673;27;90616;-72
2022/09/11 07:47:22;;;;;;;31.73;19.70;;;;;;;;;;5079713;27;89804;-72
2022/09/11 07:49:50;;;;;;;24.00;21.05;;;;;;;;;;5060709;27;91783;-71
2022/09/11 07:52:19;;;;;;;21.63;19.00;;;;;;;;;;5061048;27;90711;-72
2022/09/11 07:54:51;;;;;;;21.55;19.13;;;;;;;;;;5060472;27;89843;-71
2022/09/11 07:57:18;;;;;;;20.50;18.58;;;;;;;;;;5078617;27;90257;-71
2022/09/11 07:59:45;;;;;;;21.05;19.02;;;;;;;;;;5060715;27;91321;-72
2022/09/11 08:02:12;;;;;;;22.17;19.85;;;;;;;;;;5063969;27;92620;-71
2022/09/11 08:04:38;;;;;;;24.90;21.40;;;;;;;;;;5079646;27;89358;-72
2022/09/11 08:07:05;;;;;;;25.45;21.20;;;;;;;;;;5079135;27;92096;-72
2022/09/11 08:09:33;;;;;;;21.65;19.55;;;;;;;;;;5060755;27;92300;-72
2022/09/11 08:12:02;;;;;;;22.60;20.10;;;;;;;;;;5071056;27;90909;-72
2022/09/11 08:14:30;;;;;;;23.48;21.08;;;;;;;;;;5069707;27;90009;-72
2022/09/11 08:17:04;;;;;;;18.60;16.98;;;;;;;;;;5059268;27;92079;-72
2022/09/11 08:19:31;;;;;;;22.88;20.38;;;;;;;;;;5059141;27;89141;-71
2022/09/11 08:22:00;;;;;;;23.25;19.55;;;;;;;;;;5054767;27;91817;-71
2022/09/11 08:24:31;;;;;;;23.08;20.13;;;;;;;;;;5072332;27;94428;-71
2022/09/11 08:26:59;;;;;;;23.58;20.70;;;;;;;;;;5075194;27;89903;-71
2022/09/11 08:29:28;;;;;;;20.35;18.25;;;;;;;;;;5062336;27;91992;-71
2022/09/11 08:31:54;;;;;;;11.93;10.75;;;;;;;;;;5055873;27;89601;-71
2022/09/11 08:34:27;;;;;;;17.80;15.95;;;;;;;;;;5059721;27;92058;-71
2022/09/11 08:36:53;;;;;;;15.98;14.48;;;;;;;;;;5070366;27;91912;-72
2022/09/11 08:39:19;;;;;;;17.40;15.52;;;;;;;;;;5082198;27;89539;-71
2022/09/11 08:42:09;;;;;;;11.98;10.90;;;;;;;;;;5068736;27;89866;-71
2022/09/11 08:44:47;;;;;;;11.40;8.73;;;;;;;;;;5063971;27;92288;-71
2022/09/11 08:47:49;;;;;;;10.90;8.63;;;;;;;;;;5071965;27;89588;-71
2022/09/11 08:50:24;;;;;;;9.15;7.53;;;;;;;;;;5071466;27;88648;-71
2022/09/11 08:52:53;;;;;;;9.07;6.57;;;;;;;;;;5070094;27;89334;-71
2022/09/11 08:55:32;;;;;;;6.72;6.03;;;;;;;;;;5064219;27;89307;-71
2022/09/11 08:58:25;;;;;;;8.20;5.97;;;;;;;;;;5077656;27;90619;-70
2022/09/11 09:01:06;;;;;;;7.05;6.35;;;;;;;;;;5074022;27;91115;-71
2022/09/11 09:03:45;;;;;;;6.60;5.67;;;;;;;;;;5068171;27;88160;-70
2022/09/11 09:06:24;;;;;;;7.00;6.30;;;;;;;;;;5062399;27;90570;-71
2022/09/11 09:08:59;;;;;;;6.63;5.97;;;;;;;;;;5067355;27;88040;-71
2022/09/11 09:11:44;;;;;;;8.75;5.63;;;;;;;;;;5067606;27;88500;-71
2022/09/11 09:14:14;;;;;;;6.85;6.13;;;;;;;;;;5064671;27;89024;-70
2022/09/11 09:16:47;;;;;;;5.60;5.10;;;;;;;;;;5064984;27;89838;-71
2022/09/11 09:19:17;;;;;;;10.50;5.82;;;;;;;;;;5067042;27;89557;-71
2022/09/11 09:22:02;;;;;;;10.93;5.13;;;;;;;;;;5065485;27;91365;-71
2022/09/11 09:24:33;;;;;;;13.20;5.82;;;;;;;;;;5063971;27;89275;-71
2022/09/11 09:27:00;;;;;;;9.23;4.95;;;;;;;;;;5084001;27;88274;-71
2022/09/11 09:29:30;;;;;;;5.07;3.90;;;;;;;;;;5091820;27;88624;-70
2022/09/11 09:32:00;;;;;;;6.80;4.32;;;;;;;;;;5071977;27;88861;-71
2022/09/11 09:34:30;;;;;;;7.30;4.00;;;;;;;;;;5067983;27;90820;-70
2022/09/11 09:37:03;;;;;;;7.97;3.58;;;;;;;;;;5066088;27;89281;-70
2022/09/11 09:39:30;;;;;;;10.50;4.15;;;;;;;;;;5070160;27;90088;-70
2022/09/11 09:42:15;;;;;;;7.80;5.00;;;;;;;;;;5072113;27;88979;-71
2022/09/11 09:44:45;;;;;;;9.50;5.60;;;;;;;;;;5068930;27;88851;-71
2022/09/11 09:47:12;;;;;;;5.10;4.15;;;;;;;;;;5089585;27;90247;-71
2022/09/11 09:49:39;;;;;;;12.25;4.72;;;;;;;;;;5088072;27;91094;-72
2022/09/11 09:52:17;;;;;;;4.57;3.72;;;;;;;;;;5090021;27;88082;-71
2022/09/11 09:54:51;;;;;;;3.78;3.22;;;;;;;;;;5089741;27;89230;-71
2022/09/11 09:57:17;;;;;;;7.82;4.10;;;;;;;;;;5089521;27;88072;-72
2022/09/11 09:59:51;;;;;;;5.70;4.15;;;;;;;;;;5087717;27;89210;-71
2022/09/11 10:02:37;;;;;;;7.53;3.63;;;;;;;;;;5091013;27;89003;-71
2022/09/11 10:05:22;;;;;;;4.25;3.60;;;;;;;;;;5082933;27;88182;-72
2022/09/11 10:07:50;;;;;;;5.25;3.50;;;;;;;;;;5084727;27;90466;-71
2022/09/11 10:10:33;;;;;;;5.00;3.55;;;;;;;;;;5076066;27;90659;-71
2022/09/11 10:13:01;;;;;;;7.65;3.20;;;;;;;;;;5076677;27;89431;-71
2022/09/11 10:15:47;;;;;;;3.47;2.80;;;;;;;;;;5076851;27;88706;-72
2022/09/11 10:18:22;;;;;;;4.82;3.00;;;;;;;;;;5084530;27;88034;-72
2022/09/11 10:20:48;;;;;;;5.97;3.33;;;;;;;;;;5093969;27;88824;-72
2022/09/11 10:23:24;;;;;;;4.90;3.90;;;;;;;;;;5085904;27;89770;-71
2022/09/11 10:25:51;;;;;;;4.55;3.72;;;;;;;;;;5084724;27;88277;-71
2022/09/11 10:28:21;;;;;;;3.42;3.10;;;;;;;;;;5088946;27;88452;-70
2022/09/11 10:30:51;;;;;;;2.97;2.70;;;;;;;;;;5081535;27;89041;-71
2022/09/11 10:33:25;;;;;;;5.88;3.08;;;;;;;;;;5087720;27;88120;-71
2022/09/11 10:35:55;;;;;;;4.95;3.40;;;;;;;;;;5088353;27;89285;-71
2022/09/11 10:38:22;;;;;;;6.10;3.83;;;;;;;;;;5089482;27;89232;-70
2022/09/11 10:40:57;;;;;;;4.55;3.78;;;;;;;;;;5085262;27;88514;-70
2022/09/11 10:43:25;;;;;;;8.50;4.18;;;;;;;;;;5077921;27;90488;-70
2022/09/11 10:46:01;;;;;;;3.67;3.38;;;;;;;;;;5083043;27;88770;-70
2022/09/11 10:48:28;;;;;;;4.15;3.38;;;;;;;;;;5084802;27;90762;-70
2022/09/11 10:51:04;;;;;;;3.78;3.15;;;;;;;;;;5086577;27;88717;-70
2022/09/11 10:53:36;;;;;;;5.82;3.50;;;;;;;;;;5086880;27;88599;-69
2022/09/11 10:56:04;;;;;;;4.82;3.45;;;;;;;;;;5078529;27;88367;-70
2022/09/11 10:58:32;;;;;;;6.60;3.60;;;;;;;;;;5087736;27;89124;-69
2022/09/11 11:01:00;;;;;;;4.95;3.67;;;;;;;;;;5082284;27;89602;-70
2022/09/11 11:03:27;;;;;;;4.05;3.22;;;;;;;;;;5083329;27;89465;-70
2022/09/11 11:05:59;;;;;;;8.32;4.38;;;;;;;;;;5082982;27;88427;-71
2022/09/11 11:08:26;;;;;;;3.08;2.45;;;;;;;;;;5092963;27;88864;-70
2022/09/11 11:10:55;;;;;;;4.28;2.70;;;;;;;;;;5087270;27;89112;-70
2022/09/11 11:13:24;;;;;;;11.20;2.92;;;;;;;;;;5089304;27;88137;-70
2022/09/11 11:15:59;;;;;;;2.58;2.33;;;;;;;;;;5085838;27;89850;-70
2022/09/11 11:18:45;;;;;;;6.05;2.90;;;;;;;;;;5085908;27;88346;-70
2022/09/11 11:21:30;;;;;;;6.00;2.55;;;;;;;;;;5083094;27;89293;-70
2022/09/11 11:24:02;;;;;;;3.08;2.25;;;;;;;;;;5095661;27;89515;-70
2022/09/11 11:26:39;;;;;;;3.50;2.42;;;;;;;;;;5087655;27;88918;-70
2022/09/11 11:29:17;;;;;;;5.85;2.13;;;;;;;;;;5080070;27;89365;-70
2022/09/11 11:32:02;;;;;;;3.33;2.42;;;;;;;;;;5085147;27;88845;-70
2022/09/11 11:34:33;;;;;;;2.33;1.70;;;;;;;;;;5097306;27;88077;-70
2022/09/11 11:37:16;;;;;;;4.22;2.30;;;;;;;;;;5089688;27;88401;-70
2022/09/11 11:39:43;;;;;;;3.50;1.65;;;;;;;;;;5087407;27;88882;-70
2022/09/11 11:42:09;;;;;;;5.50;1.85;;;;;;;;;;5089308;27;88027;-69
2022/09/11 11:44:48;;;;;;;3.17;1.70;;;;;;;;;;5083880;27;88594;-70
2022/09/11 11:47:15;;;;;;;3.58;1.50;;;;;;;;;;5086783;27;88804;-69
2022/09/11 11:49:48;;;;;;;2.15;1.65;;;;;;;;;;5087201;27;88112;-69
2022/09/11 11:52:22;;;;;;;4.57;1.58;;;;;;;;;;5088271;27;88765;-70
2022/09/11 11:55:09;;;;;;;3.53;1.83;;;;;;;;;;5080872;27;89681;-70
2022/09/11 11:57:40;;;;;;;5.75;2.10;;;;;;;;;;5082916;27;87991;-70
2022/09/11 12:00:11;;;;;;;7.07;2.77;;;;;;;;;;5091151;27;88964;-69
2022/09/11 12:02:37;;;;;;;5.27;2.40;;;;;;;;;;5083188;27;89819;-69
2022/09/11 12:05:08;;;;;;;4.57;2.05;;;;;;;;;;5092120;27;88192;-70
2022/09/11 12:07:36;;;;;;;2.97;1.88;;;;;;;;;;5082982;27;88895;-70
2022/09/11 12:10:04;;;;;;;4.55;2.20;;;;;;;;;;5094971;27;87781;-70
2022/09/11 12:12:32;;;;;;;5.75;2.35;;;;;;;;;;5090144;27;88551;-70
2022/09/11 12:15:05;;;;;;;2.80;2.33;;;;;;;;;;5084278;27;88044;-70
2022/09/11 12:17:32;;;;;;;3.00;2.03;;;;;;;;;;5083619;27;91185;-70
2022/09/11 12:20:10;;;;;;;2.38;1.83;;;;;;;;;;5087506;27;88954;-70
2022/09/11 12:22:40;;;;;;;3.83;2.20;;;;;;;;;;5091382;27;88387;-70
2022/09/11 12:25:18;;;;;;;4.45;2.45;;;;;;;;;;5081943;27;88436;-70
2022/09/11 12:27:44;;;;;;;1.88;1.67;;;;;;;;;;5082022;27;89076;-70
2022/09/11 12:30:17;;;;;;;2.55;2.13;;;;;;;;;;5080300;27;88043;-69
2022/09/11 12:32:53;;;;;;;4.65;2.20;;;;;;;;;;5086669;27;88475;-70
2022/09/11 12:35:38;;;;;;;5.53;2.22;;;;;;;;;;5099009;27;87324;-70
2022/09/11 12:38:05;;;;;;;3.90;1.77;;;;;;;;;;5098719;27;88448;-70
2022/09/11 12:40:33;;;;;;;3.92;1.95;;;;;;;;;;5086498;27;90864;-70
2022/09/11 12:43:19;;;;;;;3.22;2.03;;;;;;;;;;5094652;27;92271;-70
2022/09/11 12:45:48;;;;;;;3.78;1.90;;;;;;;;;;5088504;27;89306;-70
2022/09/11 12:48:16;;;;;;;2.75;2.10;;;;;;;;;;5078448;27;88888;-70
2022/09/11 12:50:50;;;;;;;5.03;2.13;;;;;;;;;;5083765;27;89084;-70
2022/09/11 12:53:21;;;;;;;2.35;1.70;;;;;;;;;;5092399;27;88465;-70
2022/09/11 12:55:53;;;;;;;4.40;1.65;;;;;;;;;;5078759;27;89708;-70
2022/09/11 12:58:20;;;;;;;;;;;;;;;;;;5089677;27;89171;-69
2022/09/11 13:00:47;;;;;;;2.25;1.40;;;;;;;;;;5082180;27;117233;-69
2022/09/11 13:03:33;;;;;;;3.22;1.67;;;;;;;;;;5078809;27;88030;-70
2022/09/11 13:06:02;;;;;;;3.50;1.60;;;;;;;;;;5080081;27;89968;-69
2022/09/11 13:08:33;;;;;;;2.60;1.52;;;;;;;;;;5085332;27;89876;-70
2022/09/11 13:11:17;;;;;;;3.83;1.60;;;;;;;;;;5090052;27;89348;-70
2022/09/11 13:13:45;;;;;;;5.85;1.77;;;;;;;;;;5066549;27;88903;-69
2022/09/11 13:16:29;;;;;;;5.38;1.92;;;;;;;;;;5092910;27;88873;-69
2022/09/11 13:18:59;;;;;;;2.88;1.60;;;;;;;;;;5080488;27;89481;-69
2022/09/11 13:21:25;;;;;;;3.85;1.60;;;;;;;;;;5087188;27;89687;-69
2022/09/11 13:23:52;;;;;;;3.67;1.33;;;;;;;;;;5086384;27;88044;-69
2022/09/11 13:26:23;;;;;;;2.30;1.83;;;;;;;;;;5079981;27;88550;-69
2022/09/11 13:28:51;;;;;;;3.63;1.73;;;;;;;;;;5064467;27;90628;-69
2022/09/11 13:31:23;;;;;;;5.78;1.70;;;;;;;;;;5078367;27;88034;-69
2022/09/11 13:33:50;;;;;;;2.38;1.50;;;;;;;;;;5076952;27;89133;-69
2022/09/11 13:36:19;;;;;;;2.67;2.00;;;;;;;;;;5077743;27;89479;-69
2022/09/11 13:38:49;;;;;;;4.45;1.42;;;;;;;;;;5098246;27;88657;-69
2022/09/11 13:41:18;;;;;;;1.73;1.42;;;;;;;;;;5097754;27;88619;-69
2022/09/11 13:43:48;;;;;;;3.45;1.77;;;;;;;;;;5081090;27;87962;-69
2022/09/11 13:46:14;;;;;;;2.60;1.63;;;;;;;;;;5077489;27;88762;-69
2022/09/11 13:48:42;;;;;;;4.55;1.80;;;;;;;;;;5077835;27;89206;-69
2022/09/11 13:51:23;;;;;;;2.20;1.50;;;;;;;;;;5077636;27;87314;-69
2022/09/11 13:54:15;;;;;;;4.15;1.50;;;;;;;;;;5078315;27;89782;-69
2022/09/11 13:57:05;;;;;;;6.30;1.60;;;;;;;;;;5074277;27;89521;-69
2022/09/11 13:59:35;;;;;;;1.55;1.30;;;;;;;;;;5075121;27;88831;-69
2022/09/11 14:02:03;;;;;;;2.92;1.55;;;;;;;;;;5079772;27;90339;-69
2022/09/11 14:04:31;;;;;;;3.22;1.85;;;;;;;;;;5078571;27;87983;-69
2022/09/11 14:06:58;;;;;;;9.32;2.50;;;;;;;;;;5086570;27;89111;-69
2022/09/11 14:09:24;;;;;;;2.35;1.38;;;;;;;;;;5078432;27;89901;-69
2022/09/11 14:11:51;;;;;;;1.70;1.50;;;;;;;;;;5079484;27;88521;-69
2022/09/11 14:14:21;;;;;;;3.20;1.52;;;;;;;;;;5079201;27;88555;-69
2022/09/11 14:16:51;;;;;;;2.40;1.55;;;;;;;;;;5081349;27;88083;-69
2022/09/11 14:19:20;;;;;;;1.88;1.35;;;;;;;;;;5088795;27;88275;-69
2022/09/11 14:21:48;;;;;;;3.65;1.50;;;;;;;;;;5086774;27;89923;-69
2022/09/11 14:24:24;;;;;;;4.10;1.77;;;;;;;;;;5088766;27;89736;-69
2022/09/11 14:26:50;;;;;;;4.70;1.60;;;;;;;;;;5079703;27;88231;-69
2022/09/11 14:29:24;;;;;;;5.63;1.50;;;;;;;;;;5085475;27;89847;-69
2022/09/11 14:31:51;;;;;;;1.50;1.38;;;;;;;;;;5081045;27;89518;-69
2022/09/11 14:34:18;;;;;;;1.80;1.70;;;;;;;;;;5083186;27;88812;-69
2022/09/11 14:36:50;;;;;;;1.90;1.52;;;;;;;;;;5087555;27;89717;-70
2022/09/11 14:39:16;;;;;;;;;;;;;;;;;;5092171;27;88806;-69
2022/09/11 14:41:43;;;;;;;2.75;1.40;;;;;;;;;;5082986;27;118572;-69
2022/09/11 14:44:14;;;;;;;2.35;1.60;;;;;;;;;;5096349;27;88020;-69
2022/09/11 14:46:41;;;;;;;2.25;1.52;;;;;;;;;;5100256;27;87942;-70